Little Compton, Rhode Island
Current Conditions -  °F | °C
As of 9:53 PM on Monday 22 Dec 2014 (Local Time) from KUUU Reporting Station
Overcast Overcast  
Wind Chill: 37°   Ceiling: 4300
Heat Index: 42°   Visibility: 10mi
Dew Point: 36°   Wind: 9mph
Humidity: 79%   Direction: 100°E
Pressure: 30.28"   Gusts: NA
Location:  41.51°N, 71.17°W
Report Text: KUUU 230253Z AUTO 10008KT 10SM BKN043 OVC050 06/02 A3028 RMK AO2 SLP253 T00560022 58003
Loading
Personal Weather Stations






























Interactive Weather Map New forecast layout! Learn more

10-Day Weather Forecast

Advertisements
Track Severe Weather on mobile